Time;durP1;ratioP1;P1;durP2;ratioP2;P2;SDS_P1;SDS_P2;PMS_P1;PMS_P2;Temp;Humidity;BMP_temperature;BMP_pressure;BME280_temperature;BME280_humidity;BME280_pressure;Samples;Min_cycle;Max_cycle;Signal;HPM_P1;HPM_P2
2021/06/08 00:02:12;;;;;;;7.45;5.95;;;24.00;64.80;;;;;;5012905;28;20025;-45
2021/06/08 00:04:37;;;;;;;7.68;6.30;;;24.00;64.90;;;;;;5012095;28;20463;-51
2021/06/08 00:07:03;;;;;;;8.93;6.30;;;24.00;65.00;;;;;;5007767;28;20072;-47
2021/06/08 00:09:29;;;;;;;7.93;6.03;;;24.00;65.10;;;;;;4992245;28;20516;-44
2021/06/08 00:11:55;;;;;;;11.43;6.20;;;23.90;65.10;;;;;;4991898;28;20097;-44
2021/06/08 00:14:20;;;;;;;7.30;6.47;;;23.90;65.00;;;;;;4992539;28;20400;-46
2021/06/08 00:16:46;;;;;;;7.25;6.00;;;23.90;65.10;;;;;;4991784;28;20038;-45
2021/06/08 00:19:12;;;;;;;9.88;6.57;;;23.90;65.10;;;;;;4992227;28;20026;-44
2021/06/08 00:21:37;;;;;;;7.38;5.95;;;23.90;65.10;;;;;;4992317;28;20369;-47
2021/06/08 00:24:04;;;;;;;6.68;5.47;;;23.90;65.10;;;;;;4992401;28;20030;-45
2021/06/08 00:26:29;;;;;;;6.28;5.68;;;23.90;65.00;;;;;;4992480;28;20085;-45
2021/06/08 00:28:55;;;;;;;6.80;5.90;;;23.90;65.00;;;;;;4991409;28;20026;-45
2021/06/08 00:31:21;;;;;;;7.15;6.10;;;23.90;64.90;;;;;;4992246;28;20026;-45
2021/06/08 00:33:47;;;;;;;6.47;5.75;;;23.90;64.90;;;;;;4991686;28;20105;-45
2021/06/08 00:36:14;;;;;;;6.78;5.95;;;23.90;65.00;;;;;;4992358;28;20422;-45
2021/06/08 00:38:40;;;;;;;6.57;5.88;;;23.90;64.90;;;;;;4991635;28;20121;-46
2021/06/08 00:41:05;;;;;;;6.63;5.88;;;23.90;64.90;;;;;;4991910;28;20105;-45
2021/06/08 00:43:31;;;;;;;7.47;5.90;;;23.90;64.90;;;;;;5001693;28;20037;-45
2021/06/08 00:45:57;;;;;;;7.18;5.75;;;23.90;64.90;;;;;;5002780;28;20050;-48
2021/06/08 00:48:23;;;;;;;6.93;6.00;;;23.90;65.00;;;;;;5004944;28;20030;-49
2021/06/08 00:50:50;;;;;;;6.65;5.78;;;23.90;65.60;;;;;;5004040;28;20435;-46
2021/06/08 00:53:15;;;;;;;6.13;5.53;;;23.90;64.90;;;;;;5003155;28;20042;-45
2021/06/08 00:55:41;;;;;;;6.47;5.68;;;23.90;65.00;;;;;;5004333;28;20025;-49
2021/06/08 00:58:07;;;;;;;6.57;5.78;;;23.80;64.90;;;;;;5004570;28;20031;-45
2021/06/08 01:00:32;;;;;;;6.60;5.85;;;23.90;65.00;;;;;;5003913;28;20486;-45
2021/06/08 01:02:58;;;;;;;7.80;5.50;;;23.90;64.90;;;;;;5005452;28;20018;-46
2021/06/08 01:05:25;;;;;;;6.13;5.47;;;23.80;65.00;;;;;;5003813;28;20030;-48
2021/06/08 01:07:51;;;;;;;6.68;5.80;;;23.80;64.90;;;;;;5002562;28;20407;-48
2021/06/08 01:10:17;;;;;;;6.13;5.53;;;23.90;64.90;;;;;;5002877;28;20029;-47
2021/06/08 01:12:43;;;;;;;7.43;6.22;;;23.80;64.90;;;;;;5003886;28;20021;-46
2021/06/08 01:15:09;;;;;;;5.70;5.10;;;23.80;64.90;;;;;;5004561;28;20030;-50
2021/06/08 01:17:35;;;;;;;7.68;5.90;;;23.90;64.90;;;;;;5002937;28;20027;-45
2021/06/08 01:20:03;;;;;;;6.30;5.57;;;23.80;64.90;;;;;;5003866;28;20045;-45
2021/06/08 01:22:29;;;;;;;6.20;5.47;;;23.80;64.80;;;;;;5004147;28;20026;-45
2021/06/08 01:24:54;;;;;;;7.95;7.15;;;23.80;64.90;;;;;;5002155;28;20031;-46
2021/06/08 01:27:21;;;;;;;6.40;5.10;;;23.80;64.90;;;;;;5004773;28;20025;-51
2021/06/08 01:29:49;;;;;;;6.97;5.55;;;23.80;64.90;;;;;;5003398;28;20034;-48
2021/06/08 01:32:16;;;;;;;6.45;5.35;;;23.80;64.90;;;;;;5002770;28;20022;-48
2021/06/08 01:34:44;;;;;;;7.75;6.10;;;23.80;64.80;;;;;;5003557;28;20017;-52
2021/06/08 01:37:10;;;;;;;8.73;6.15;;;23.80;64.80;;;;;;5004292;28;20034;-45
2021/06/08 01:39:37;;;;;;;5.60;5.10;;;23.80;64.80;;;;;;5002751;28;20053;-45
2021/06/08 01:42:04;;;;;;;7.20;6.00;;;23.80;64.70;;;;;;5004172;28;20026;-49
2021/06/08 01:44:30;;;;;;;6.25;5.43;;;23.80;64.70;;;;;;5004144;28;20030;-47
2021/06/08 01:46:56;;;;;;;6.25;5.38;;;23.80;64.80;;;;;;5001937;28;20431;-47
2021/06/08 01:49:22;;;;;;;7.30;5.60;;;23.80;64.70;;;;;;5004252;28;20084;-48
2021/06/08 01:52:14;;;;;;;6.00;5.35;;;23.80;64.80;;;;;;5034159;28;20065;-48
2021/06/08 01:55:02;;;;;;;5.93;5.25;;;23.80;64.80;;;;;;5003867;28;20567;-45
2021/06/08 01:57:31;;;;;;;7.75;5.32;;;23.80;64.80;;;;;;4998757;28;20034;-48
2021/06/08 02:00:12;;;;;;;6.00;5.40;;;23.80;64.90;;;;;;4993981;28;20053;-45
2021/06/08 02:02:59;;;;;;;5.95;5.35;;;23.80;64.80;;;;;;4994516;28;20543;-44
2021/06/08 02:05:31;;;;;;;6.40;5.80;;;23.80;64.70;;;;;;4994421;28;20041;-47
2021/06/08 02:08:08;;;;;;;7.32;5.13;;;23.80;64.70;;;;;;5005168;28;20025;-44
2021/06/08 02:10:49;;;;;;;5.97;5.38;;;23.80;64.70;;;;;;5014256;28;20030;-45
2021/06/08 02:13:49;;;;;;;6.32;5.72;;;23.80;64.70;;;;;;5014497;28;20137;-48
2021/06/08 02:16:35;;;;;;;8.30;5.95;;;23.80;64.70;;;;;;5013911;28;20510;-45
2021/06/08 02:19:01;;;;;;;7.78;5.90;;;23.80;64.70;;;;;;5013196;28;20092;-45
2021/06/08 02:21:34;;;;;;;7.13;6.40;;;23.80;64.70;;;;;;5013708;28;20038;-48
2021/06/08 02:24:04;;;;;;;7.30;5.80;;;23.80;64.60;;;;;;5013339;28;20185;-44
2021/06/08 02:26:32;;;;;;;7.78;6.55;;;23.80;64.60;;;;;;5013756;28;20044;-46
2021/06/08 02:29:00;;;;;;;6.68;5.93;;;23.80;64.60;;;;;;5013248;28;20030;-46
2021/06/08 02:31:28;;;;;;;7.35;5.90;;;23.80;64.60;;;;;;5013884;28;20382;-48
2021/06/08 02:33:55;;;;;;;6.57;5.60;;;23.70;64.50;;;;;;5012884;28;20022;-46
2021/06/08 02:36:22;;;;;;;6.57;5.85;;;23.80;64.50;;;;;;5013957;28;20383;-45
2021/06/08 02:38:49;;;;;;;6.45;5.57;;;23.80;64.50;;;;;;5012815;28;20475;-45
2021/06/08 02:41:16;;;;;;;6.45;5.80;;;23.80;64.50;;;;;;5013739;28;20076;-46
2021/06/08 02:43:45;;;;;;;7.38;6.38;;;23.80;64.40;;;;;;5013018;28;20057;-45
2021/06/08 02:46:11;;;;;;;6.20;5.60;;;23.70;64.50;;;;;;5013442;28;20120;-47
2021/06/08 02:48:39;;;;;;;6.75;6.03;;;23.80;64.40;;;;;;5013646;28;20045;-48
2021/06/08 02:51:05;;;;;;;6.38;5.78;;;23.70;64.40;;;;;;5012601;28;20041;-45
2021/06/08 02:53:33;;;;;;;6.55;5.90;;;23.80;64.50;;;;;;5013480;28;20045;-46
2021/06/08 02:55:58;;;;;;;6.45;5.72;;;23.80;64.40;;;;;;5012725;28;20422;-47
2021/06/08 02:58:26;;;;;;;6.35;5.75;;;23.70;64.50;;;;;;5013315;28;20029;-49
2021/06/08 03:00:51;;;;;;;8.13;6.53;;;23.70;64.50;;;;;;5012389;28;20080;-45
2021/06/08 03:03:21;;;;;;;7.35;6.38;;;23.70;64.50;;;;;;5012973;28;20499;-46
2021/06/08 03:05:56;;;;;;;6.60;5.90;;;23.70;64.50;;;;;;5012265;28;20040;-47
2021/06/08 03:08:29;;;;;;;6.38;5.50;;;23.70;64.50;;;;;;5012151;28;20030;-45
2021/06/08 03:10:57;;;;;;;6.18;5.57;;;23.70;64.50;;;;;;5012538;28;20026;-45
2021/06/08 03:13:24;;;;;;;6.55;5.68;;;23.70;64.50;;;;;;5012930;28;20030;-47
2021/06/08 03:15:55;;;;;;;6.68;5.97;;;23.70;64.40;;;;;;5012379;28;20034;-45
2021/06/08 03:18:27;;;;;;;6.78;5.78;;;23.70;64.50;;;;;;5013183;28;20030;-50
2021/06/08 03:21:00;;;;;;;6.18;5.57;;;23.70;64.50;;;;;;5011873;28;20037;-45
2021/06/08 03:23:33;;;;;;;6.47;5.82;;;23.70;64.50;;;;;;5012877;28;20022;-45
2021/06/08 03:26:01;;;;;;;7.28;6.32;;;23.70;64.50;;;;;;5012170;28;20391;-48
2021/06/08 03:28:29;;;;;;;6.60;5.93;;;23.70;64.50;;;;;;5012602;28;20061;-44
2021/06/08 03:30:56;;;;;;;5.95;5.35;;;23.70;64.50;;;;;;5012153;28;20033;-52
2021/06/08 03:33:24;;;;;;;6.75;5.90;;;23.70;64.50;;;;;;5012774;28;20022;-49
2021/06/08 03:35:51;;;;;;;7.30;6.18;;;23.70;64.50;;;;;;5011856;28;20030;-50
2021/06/08 03:38:17;;;;;;;8.38;6.30;;;23.70;64.50;;;;;;5012474;28;20026;-47
2021/06/08 03:40:44;;;;;;;6.97;5.88;;;23.70;64.50;;;;;;5011947;28;20423;-48
2021/06/08 03:43:10;;;;;;;7.47;6.38;;;23.70;64.50;;;;;;5012531;28;20026;-46
2021/06/08 03:45:36;;;;;;;7.25;5.47;;;23.70;64.50;;;;;;5012087;28;20407;-46
2021/06/08 03:48:02;;;;;;;7.53;6.22;;;23.70;64.50;;;;;;5011771;28;20018;-48
2021/06/08 03:50:29;;;;;;;6.72;6.03;;;23.70;65.10;;;;;;5012395;28;20068;-46
2021/06/08 03:52:56;;;;;;;8.20;5.75;;;23.60;64.40;;;;;;5011648;28;20054;-45
2021/06/08 03:55:25;;;;;;;7.97;6.32;;;23.60;64.40;;;;;;5012399;28;20033;-49
2021/06/08 03:57:54;;;;;;;6.15;5.55;;;23.70;64.40;;;;;;5011378;28;20022;-47
2021/06/08 04:00:25;;;;;;;7.95;6.03;;;23.70;64.40;;;;;;5012405;28;20384;-46
2021/06/08 04:02:51;;;;;;;8.35;6.65;;;23.60;64.40;;;;;;5011656;28;20025;-44
2021/06/08 04:05:17;;;;;;;6.88;6.18;;;23.60;64.50;;;;;;5012160;28;20510;-45
2021/06/08 04:07:46;;;;;;;8.60;6.40;;;23.60;64.40;;;;;;5011189;28;20030;-47
2021/06/08 04:10:20;;;;;;;6.85;6.15;;;23.60;64.30;;;;;;5012012;28;20467;-46
2021/06/08 04:12:46;;;;;;;7.30;6.15;;;23.70;64.50;;;;;;5011139;28;20029;-45
2021/06/08 04:15:12;;;;;;;7.32;6.35;;;23.60;64.40;;;;;;5012364;28;20489;-45
2021/06/08 04:17:39;;;;;;;6.70;6.00;;;23.70;64.40;;;;;;5012287;28;20026;-45
2021/06/08 04:20:07;;;;;;;6.47;5.75;;;23.60;64.40;;;;;;5011333;28;20073;-47
2021/06/08 04:22:35;;;;;;;6.65;5.75;;;23.70;64.90;;;;;;5011938;28;20022;-46
2021/06/08 04:25:02;;;;;;;7.90;6.63;;;23.60;64.40;;;;;;5011003;28;20376;-45
2021/06/08 04:27:29;;;;;;;6.53;5.82;;;23.60;64.40;;;;;;5011762;28;20478;-44
2021/06/08 04:29:56;;;;;;;6.10;5.47;;;23.60;64.40;;;;;;5011417;28;20434;-44
2021/06/08 04:32:22;;;;;;;6.78;5.97;;;23.60;64.40;;;;;;5012184;28;20026;-45
2021/06/08 04:34:53;;;;;;;6.80;5.90;;;23.70;64.40;;;;;;5011096;28;20109;-45
2021/06/08 04:37:20;;;;;;;7.13;6.47;;;23.60;64.30;;;;;;5012043;28;20032;-45
2021/06/08 04:39:46;;;;;;;7.30;6.15;;;23.60;64.30;;;;;;5011398;28;20809;-46
2021/06/08 04:42:14;;;;;;;7.10;6.00;;;23.60;64.30;;;;;;5011977;28;20030;-44
2021/06/08 04:44:45;;;;;;;6.78;5.85;;;23.60;64.30;;;;;;5011842;28;20029;-49
2021/06/08 04:47:12;;;;;;;6.78;6.07;;;23.60;64.30;;;;;;5011578;28;20037;-45
2021/06/08 04:49:39;;;;;;;6.97;6.28;;;23.60;64.20;;;;;;5011651;28;20479;-50
2021/06/08 04:52:06;;;;;;;8.90;6.63;;;23.60;64.20;;;;;;5010831;28;20130;-45
2021/06/08 04:54:33;;;;;;;8.82;5.72;;;23.70;64.20;;;;;;5011877;28;20132;-49
2021/06/08 04:57:00;;;;;;;7.75;6.20;;;23.70;64.30;;;;;;5011082;28;20037;-45
2021/06/08 04:59:36;;;;;;;6.18;5.57;;;23.60;64.20;;;;;;5043489;28;20475;-48
2021/06/08 05:02:07;;;;;;;7.07;6.30;;;23.60;64.20;;;;;;5011155;28;20025;-46
2021/06/08 05:04:34;;;;;;;7.03;6.32;;;23.70;64.30;;;;;;5011807;28;20080;-49
2021/06/08 05:07:04;;;;;;;8.05;6.20;;;23.70;64.20;;;;;;5007211;28;20031;-45
2021/06/08 05:09:34;;;;;;;7.53;6.10;;;23.60;64.20;;;;;;4992193;28;20023;-47
2021/06/08 05:12:05;;;;;;;6.93;6.13;;;23.60;64.30;;;;;;4991228;28;20018;-45
2021/06/08 05:14:32;;;;;;;7.45;6.00;;;23.60;64.20;;;;;;4991982;28;20037;-45
2021/06/08 05:16:58;;;;;;;7.28;6.50;;;23.60;64.30;;;;;;4991403;28;20030;-45
2021/06/08 05:19:25;;;;;;;7.55;6.30;;;23.60;64.20;;;;;;4991934;28;20022;-46
2021/06/08 05:21:52;;;;;;;7.32;6.20;;;23.60;64.10;;;;;;4991307;28;20031;-45
2021/06/08 05:24:19;;;;;;;8.68;6.30;;;23.60;64.20;;;;;;4991515;28;20531;-47
2021/06/08 05:26:47;;;;;;;6.82;6.13;;;23.60;64.20;;;;;;4991627;28;20031;-47
2021/06/08 05:29:20;;;;;;;7.38;6.60;;;23.70;64.20;;;;;;4991735;28;20019;-45
2021/06/08 05:31:47;;;;;;;6.75;6.05;;;23.70;64.20;;;;;;4993663;28;20061;-45
2021/06/08 05:34:14;;;;;;;6.82;5.80;;;23.70;64.20;;;;;;4994781;28;20027;-47
2021/06/08 05:36:41;;;;;;;7.57;5.75;;;23.70;64.20;;;;;;4995329;28;20563;-47
2021/06/08 05:39:09;;;;;;;8.68;6.20;;;23.70;64.20;;;;;;4994227;28;20110;-50
2021/06/08 05:41:36;;;;;;;8.35;6.40;;;23.70;64.20;;;;;;4995351;28;20031;-50
2021/06/08 05:44:02;;;;;;;7.35;5.95;;;23.70;64.40;;;;;;4994225;28;20030;-50
2021/06/08 05:46:32;;;;;;;7.93;6.13;;;23.80;64.60;;;;;;4995110;28;20498;-47
2021/06/08 05:48:58;;;;;;;9.25;6.32;;;23.80;64.60;;;;;;4994359;28;20077;-47
2021/06/08 05:51:24;;;;;;;7.88;6.32;;;23.80;64.80;;;;;;4995250;28;20430;-47
2021/06/08 05:53:50;;;;;;;11.52;7.35;;;23.80;64.70;;;;;;4994101;28;20487;-48
2021/06/08 05:56:17;;;;;;;13.80;7.13;;;23.80;65.60;;;;;;4994900;28;20030;-48
2021/06/08 05:58:43;;;;;;;13.82;7.53;;;23.80;65.50;;;;;;4994343;28;20053;-49
2021/06/08 06:01:11;;;;;;;13.27;6.55;;;23.80;65.30;;;;;;4993757;28;20030;-52
2021/06/08 06:03:38;;;;;;;19.00;6.68;;;23.80;65.20;;;;;;4994903;28;20034;-48
2021/06/08 06:06:05;;;;;;;11.32;6.15;;;23.90;65.20;;;;;;4994044;28;20093;-54
2021/06/08 06:08:31;;;;;;;14.52;6.43;;;23.90;65.30;;;;;;5010227;28;20041;-52
2021/06/08 06:11:04;;;;;;;17.73;7.40;;;23.90;65.10;;;;;;5012879;28;20030;-48
2021/06/08 06:13:36;;;;;;;13.77;7.03;;;23.90;65.50;;;;;;5013980;28;20029;-53
2021/06/08 06:16:03;;;;;;;9.25;7.20;;;23.90;65.60;;;;;;5024632;28;20049;-54
2021/06/08 06:18:29;;;;;;;11.50;7.75;;;23.90;65.40;;;;;;5033853;28;20022;-54
2021/06/08 06:20:55;;;;;;;9.65;7.93;;;23.90;65.20;;;;;;5033288;28;20086;-49
2021/06/08 06:23:24;;;;;;;13.32;8.73;;;23.90;65.00;;;;;;5033985;28;20025;-54
2021/06/08 06:25:53;;;;;;;11.10;8.38;;;23.90;64.90;;;;;;5033094;28;20030;-47
2021/06/08 06:28:19;;;;;;;14.20;9.18;;;23.90;64.80;;;;;;5033596;28;20466;-53
2021/06/08 06:30:47;;;;;;;13.90;9.23;;;23.90;64.70;;;;;;5033433;28;20117;-53
2021/06/08 06:33:13;;;;;;;12.50;9.02;;;23.90;64.60;;;;;;5032955;28;20045;-51
2021/06/08 06:35:38;;;;;;;13.23;9.15;;;23.90;64.60;;;;;;5033296;28;20033;-54
2021/06/08 06:38:07;;;;;;;15.90;9.63;;;23.90;64.50;;;;;;5033154;28;20379;-53
2021/06/08 06:40:36;;;;;;;12.57;9.57;;;23.90;64.50;;;;;;5033339;28;20046;-54
2021/06/08 06:43:04;;;;;;;11.65;8.73;;;23.90;64.30;;;;;;5032192;28;20036;-54
2021/06/08 06:45:33;;;;;;;13.07;9.18;;;23.90;64.30;;;;;;5023089;28;20503;-53
2021/06/08 06:48:02;;;;;;;9.93;8.45;;;23.90;64.30;;;;;;5012439;28;20360;-53
2021/06/08 06:50:35;;;;;;;12.73;9.07;;;23.90;64.10;;;;;;5013109;28;20480;-53
2021/06/08 06:53:01;;;;;;;10.98;8.85;;;23.90;64.00;;;;;;5012337;28;20057;-54
2021/06/08 06:55:29;;;;;;;9.52;8.30;;;23.90;63.90;;;;;;5012961;28;20073;-55
2021/06/08 06:57:55;;;;;;;14.50;10.23;;;23.90;64.00;;;;;;5012369;28;20034;-53
2021/06/08 07:00:22;;;;;;;12.07;9.35;;;23.90;64.00;;;;;;5013227;28;20442;-54
2021/06/08 07:02:49;;;;;;;13.73;9.48;;;23.90;64.00;;;;;;5013381;28;20033;-51
2021/06/08 07:05:18;;;;;;;11.90;9.77;;;23.90;64.00;;;;;;5012645;28;20041;-52
2021/06/08 07:07:45;;;;;;;12.05;9.75;;;23.90;64.00;;;;;;5013170;28;20049;-52
2021/06/08 07:10:14;;;;;;;11.73;9.73;;;23.90;63.90;;;;;;5012071;28;20018;-52
2021/06/08 07:12:40;;;;;;;12.48;9.38;;;23.90;63.90;;;;;;5013206;28;20030;-54
2021/06/08 07:15:09;;;;;;;11.48;9.40;;;23.90;63.80;;;;;;5011633;28;20045;-52
2021/06/08 07:17:34;;;;;;;12.85;10.15;;;23.90;63.80;;;;;;5013096;28;20080;-53
2021/06/08 07:20:02;;;;;;;12.50;10.55;;;23.90;63.80;;;;;;5011973;28;20037;-52
2021/06/08 07:22:28;;;;;;;14.10;10.75;;;23.90;63.70;;;;;;5012667;28;20065;-54
2021/06/08 07:24:54;;;;;;;12.98;10.05;;;23.90;63.60;;;;;;5011781;28;20080;-47
2021/06/08 07:27:20;;;;;;;12.85;10.32;;;23.90;63.60;;;;;;5012449;28;20438;-52
2021/06/08 07:29:47;;;;;;;12.75;10.27;;;23.90;63.60;;;;;;5012700;28;20104;-53
2021/06/08 07:32:22;;;;;;;11.93;10.70;;;23.90;63.60;;;;;;5011956;28;20130;-53
2021/06/08 07:35:02;;;;;;;13.20;10.55;;;23.90;63.60;;;;;;5012473;28;20030;-53
2021/06/08 07:37:30;;;;;;;13.80;11.30;;;23.90;63.40;;;;;;5012678;28;20022;-51
2021/06/08 07:40:04;;;;;;;14.50;11.55;;;23.90;63.40;;;;;;5011943;28;20030;-53
2021/06/08 07:42:59;;;;;;;13.77;11.60;;;23.90;63.30;;;;;;5012237;28;20022;-54
2021/06/08 07:45:32;;;;;;;15.20;11.65;;;23.90;63.30;;;;;;5011834;28;20034;-51
2021/06/08 07:47:59;;;;;;;13.95;10.60;;;23.90;63.20;;;;;;5011842;28;20030;-54
2021/06/08 07:50:49;;;;;;;13.52;11.80;;;23.90;63.50;;;;;;5011292;28;20486;-54
2021/06/08 07:53:15;;;;;;;13.43;11.48;;;23.90;63.40;;;;;;5010875;28;20042;-54
2021/06/08 07:55:43;;;;;;;15.73;12.13;;;23.90;63.40;;;;;;5012037;28;20025;-54
2021/06/08 07:58:10;;;;;;;13.80;11.02;;;23.90;63.30;;;;;;5010285;28;20022;-54
2021/06/08 08:00:36;;;;;;;14.90;11.05;;;23.90;63.30;;;;;;5012911;28;20117;-54
2021/06/08 08:05:48;;;;;;;15.55;12.25;;;23.90;63.20;;;;;;5011981;28;20092;-50
2021/06/08 08:08:20;;;;;;;16.55;12.02;;;23.90;63.10;;;;;;5011714;28;20124;-54
2021/06/08 08:10:50;;;;;;;16.10;13.27;;;23.90;63.10;;;;;;5011643;28;20826;-52
2021/06/08 08:13:22;;;;;;;15.82;12.60;;;23.90;63.00;;;;;;5005422;28;20367;-52
2021/06/08 08:15:51;;;;;;;15.20;12.35;;;23.90;63.10;;;;;;5013236;28;20034;-51
2021/06/08 08:18:18;;;;;;;13.88;12.38;;;23.90;63.00;;;;;;5012162;28;20030;-53
2021/06/08 08:20:49;;;;;;;16.65;13.02;;;23.90;62.90;;;;;;5011353;28;20026;-48
2021/06/08 08:23:16;;;;;;;16.50;13.43;;;23.90;62.90;;;;;;4993066;28;20034;-53
2021/06/08 08:25:43;;;;;;;16.25;13.43;;;23.90;62.90;;;;;;4993193;28;20030;-53
2021/06/08 08:28:10;;;;;;;16.13;13.27;;;23.90;62.90;;;;;;5011103;28;20025;-52
2021/06/08 08:30:36;;;;;;;16.95;14.07;;;23.90;62.80;;;;;;5028441;28;20034;-52
2021/06/08 08:33:03;;;;;;;16.67;13.68;;;23.90;62.80;;;;;;5010913;28;20419;-54
2021/06/08 08:35:30;;;;;;;16.90;13.55;;;23.90;62.70;;;;;;5011883;28;20037;-49
2021/06/08 08:37:56;;;;;;;17.80;13.43;;;23.90;62.70;;;;;;5010930;28;20034;-45
2021/06/08 08:40:22;;;;;;;15.05;13.38;;;23.90;62.60;;;;;;5011226;28;20029;-53
2021/06/08 08:42:49;;;;;;;14.80;13.20;;;23.90;62.70;;;;;;5024945;28;20040;-51
2021/06/08 08:45:15;;;;;;;15.52;13.85;;;23.90;62.70;;;;;;5024148;28;20119;-47
2021/06/08 08:47:42;;;;;;;17.02;14.32;;;23.90;62.60;;;;;;5012219;28;20026;-51
2021/06/08 08:50:09;;;;;;;17.52;13.32;;;24.00;62.70;;;;;;5011143;28;20104;-51
2021/06/08 08:52:35;;;;;;;16.35;13.73;;;24.00;62.50;;;;;;5011683;28;20057;-50
2021/06/08 08:55:01;;;;;;;17.50;13.82;;;24.00;62.70;;;;;;5010855;28;20034;-50
2021/06/08 08:57:28;;;;;;;19.15;14.10;;;24.00;62.70;;;;;;5015487;28;20025;-50
2021/06/08 08:59:59;;;;;;;15.65;13.10;;;24.00;62.50;;;;;;5031557;28;20029;-48
2021/06/08 09:02:27;;;;;;;19.85;12.93;;;24.00;62.50;;;;;;5031357;28;20067;-50
2021/06/08 09:04:53;;;;;;;18.75;13.10;;;24.00;62.80;;;;;;5032261;28;20367;-52
2021/06/08 09:07:19;;;;;;;15.48;13.65;;;24.10;62.60;;;;;;5028133;28;20460;-49
2021/06/08 09:09:46;;;;;;;15.07;13.40;;;24.10;62.70;;;;;;5047214;28;20041;-49
2021/06/08 09:12:12;;;;;;;16.70;13.48;;;24.10;62.70;;;;;;5014617;28;20100;-53
2021/06/08 09:14:40;;;;;;;15.63;13.30;;;24.10;62.60;;;;;;5014026;28;20033;-50
2021/06/08 09:17:07;;;;;;;16.58;12.70;;;24.10;62.40;;;;;;5014537;28;20163;-53
2021/06/08 09:19:34;;;;;;;17.23;14.13;;;24.20;62.40;;;;;;5015181;28;20033;-53
2021/06/08 09:22:01;;;;;;;18.17;13.05;;;24.20;62.60;;;;;;5014429;28;20034;-48
2021/06/08 09:24:34;;;;;;;16.98;13.55;;;24.20;62.70;;;;;;5015094;28;20069;-49
2021/06/08 09:27:02;;;;;;;16.30;14.00;;;24.20;62.40;;;;;;5012535;28;20038;-48
2021/06/08 09:29:35;;;;;;;16.17;13.15;;;24.20;62.30;;;;;;5034648;28;20478;-51
2021/06/08 09:32:13;;;;;;;14.18;12.38;;;24.20;62.30;;;;;;5034052;28;20068;-53
2021/06/08 09:34:47;;;;;;;16.65;13.60;;;24.20;62.50;;;;;;5034842;28;20040;-46
2021/06/08 09:37:13;;;;;;;20.70;13.63;;;24.20;62.20;;;;;;5033928;28;20029;-47
2021/06/08 09:39:47;;;;;;;17.90;13.10;;;24.20;62.30;;;;;;5034722;28;20033;-50
2021/06/08 09:42:29;;;;;;;15.32;12.70;;;24.20;62.10;;;;;;5033778;28;20033;-47
2021/06/08 09:45:10;;;;;;;16.25;14.13;;;24.20;62.20;;;;;;5029673;28;20033;-44
2021/06/08 09:47:36;;;;;;;19.53;13.83;;;24.20;62.20;;;;;;5014705;28;20022;-51
2021/06/08 09:50:22;;;;;;;18.23;14.07;;;24.30;62.20;;;;;;5013484;28;20069;-49
2021/06/08 09:52:48;;;;;;;14.80;13.20;;;24.30;62.30;;;;;;5014648;28;20050;-49
2021/06/08 09:55:13;;;;;;;16.08;12.27;;;24.20;62.10;;;;;;5013628;28;20088;-49
2021/06/08 09:57:39;;;;;;;16.50;13.85;;;24.20;62.10;;;;;;5020088;28;20017;-48
2021/06/08 10:00:07;;;;;;;15.50;11.98;;;24.20;62.10;;;;;;5033074;28;20025;-47
2021/06/08 10:02:44;;;;;;;17.15;13.40;;;24.10;62.20;;;;;;5034160;28;20030;-48
2021/06/08 10:05:27;;;;;;;16.75;13.40;;;24.20;62.10;;;;;;5033103;28;20155;-51
2021/06/08 10:07:59;;;;;;;17.88;13.90;;;24.20;62.00;;;;;;5023427;28;20479;-50
2021/06/08 10:10:42;;;;;;;22.60;12.48;;;24.20;62.00;;;;;;5014424;28;20018;-51
2021/06/08 10:13:09;;;;;;;20.10;12.90;;;24.20;62.00;;;;;;5013449;28;20026;-49
2021/06/08 10:15:57;;;;;;;17.98;12.25;;;24.30;62.00;;;;;;5013452;28;20550;-47
2021/06/08 10:18:39;;;;;;;21.33;13.15;;;24.30;62.00;;;;;;5013054;28;20121;-48
2021/06/08 10:21:05;;;;;;;18.27;13.20;;;24.30;62.00;;;;;;5013514;28;20034;-51
2021/06/08 10:23:33;;;;;;;24.58;13.18;;;24.30;62.10;;;;;;5014035;28;20029;-48
2021/06/08 10:26:01;;;;;;;20.30;13.52;;;24.30;62.10;;;;;;5013515;28;20044;-45
2021/06/08 10:28:28;;;;;;;19.70;13.48;;;24.30;62.20;;;;;;5013706;28;20040;-49
2021/06/08 10:30:56;;;;;;;17.90;12.70;;;24.40;62.40;;;;;;5029034;28;20033;-48
2021/06/08 10:33:22;;;;;;;17.10;12.70;;;24.40;62.30;;;;;;5012974;28;20064;-50
2021/06/08 10:35:50;;;;;;;19.85;12.75;;;24.50;62.60;;;;;;5013721;28;20030;-48
2021/06/08 10:38:16;;;;;;;16.02;12.90;;;24.50;62.30;;;;;;5013011;28;20113;-51
2021/06/08 10:40:44;;;;;;;18.50;12.88;;;24.50;62.70;;;;;;5013833;28;20483;-49
2021/06/08 10:43:18;;;;;;;16.58;12.00;;;24.50;62.00;;;;;;5012887;28;20072;-48
2021/06/08 10:45:45;;;;;;;16.08;12.32;;;24.50;62.30;;;;;;5012970;28;20037;-47
2021/06/08 10:48:18;;;;;;;24.10;14.25;;;24.50;62.20;;;;;;5012676;28;20033;-48
2021/06/08 10:50:46;;;;;;;19.88;12.20;;;24.50;61.80;;;;;;5013690;28;20032;-52
2021/06/08 10:53:34;;;;;;;16.13;11.65;;;24.50;62.10;;;;;;5012764;28;20462;-46
2021/06/08 10:56:01;;;;;;;11.88;10.57;;;24.60;61.90;;;;;;5012992;28;20422;-43
2021/06/08 10:58:44;;;;;;;15.70;11.32;;;24.60;62.30;;;;;;5013162;28;20072;-45
2021/06/08 11:04:03;;;;;;;;;;;24.70;62.00;;;;;;5010871;28;20030;-42
2021/06/08 11:06:53;;;;;;;17.50;11.40;;;24.70;62.00;;;;;;5018332;28;19967;-49
2021/06/08 11:09:25;;;;;;;12.20;10.32;;;24.80;62.00;;;;;;4992866;28;20217;-48
2021/06/08 11:11:55;;;;;;;14.88;12.15;;;24.70;62.00;;;;;;4993553;28;20087;-53
2021/06/08 11:14:30;;;;;;;13.98;11.05;;;24.80;62.00;;;;;;5009382;28;20025;-48
2021/06/08 11:16:59;;;;;;;13.40;10.85;;;24.80;61.90;;;;;;4993321;28;20027;-47
2021/06/08 11:19:51;;;;;;;12.32;10.57;;;24.80;61.90;;;;;;4992859;28;20033;-46
2021/06/08 11:22:41;;;;;;;16.30;10.80;;;24.80;62.00;;;;;;5001058;28;20033;-48
2021/06/08 11:25:31;;;;;;;11.90;10.70;;;24.80;62.60;;;;;;5010299;28;20030;-51
2021/06/08 11:28:04;;;;;;;11.82;10.60;;;24.80;61.80;;;;;;5012596;28;20041;-50
2021/06/08 11:30:34;;;;;;;12.85;10.52;;;24.80;61.70;;;;;;5012357;28;20037;-48
2021/06/08 11:33:04;;;;;;;13.32;10.88;;;24.80;61.60;;;;;;5012858;28;20535;-43
2021/06/08 11:35:40;;;;;;;13.75;10.65;;;24.80;61.60;;;;;;5012561;28;20446;-50
2021/06/08 11:38:27;;;;;;;13.10;10.95;;;24.80;61.70;;;;;;5011771;28;20490;-49
2021/06/08 11:41:13;;;;;;;11.20;9.82;;;24.70;61.80;;;;;;5012385;28;20108;-52
2021/06/08 11:43:45;;;;;;;11.55;9.80;;;24.80;61.80;;;;;;5012249;28;20066;-47
2021/06/08 11:46:28;;;;;;;11.63;10.35;;;24.80;61.80;;;;;;5011002;28;20069;-49
2021/06/08 11:49:18;;;;;;;12.77;10.43;;;24.80;61.90;;;;;;5012406;28;20022;-49
2021/06/08 11:51:47;;;;;;;12.57;11.25;;;24.70;61.80;;;;;;5011904;28;20049;-53
2021/06/08 11:54:26;;;;;;;12.63;11.32;;;24.70;61.60;;;;;;5011628;28;20029;-47
2021/06/08 11:57:00;;;;;;;14.10;10.82;;;24.60;61.50;;;;;;5012428;28;20052;-51
2021/06/08 11:59:32;;;;;;;11.23;10.07;;;24.60;61.60;;;;;;5011576;28;20048;-51
2021/06/08 12:01:59;;;;;;;13.38;11.15;;;24.60;61.80;;;;;;5012146;28;20112;-51
2021/06/08 12:04:30;;;;;;;12.65;10.57;;;24.60;61.90;;;;;;5015109;28;20029;-48
2021/06/08 12:07:22;;;;;;;12.45;10.65;;;24.60;62.10;;;;;;5028815;28;20368;-51
2021/06/08 12:09:47;;;;;;;11.38;10.18;;;24.60;62.00;;;;;;5010580;28;20427;-53
2021/06/08 12:12:17;;;;;;;16.27;10.32;;;24.60;62.00;;;;;;5011553;28;20033;-51
2021/06/08 12:14:48;;;;;;;12.18;10.90;;;24.60;62.10;;;;;;5013886;28;20048;-51
2021/06/08 12:17:14;;;;;;;12.77;10.60;;;24.60;62.00;;;;;;5011383;28;20029;-48
2021/06/08 12:19:40;;;;;;;12.55;9.85;;;24.60;62.00;;;;;;5012257;28;20029;-52
2021/06/08 12:22:23;;;;;;;12.93;11.38;;;24.60;62.10;;;;;;5011657;28;20030;-44
2021/06/08 12:24:53;;;;;;;12.30;11.02;;;24.60;62.00;;;;;;5019002;28;20021;-49
2021/06/08 12:27:19;;;;;;;12.38;11.07;;;24.50;62.10;;;;;;5030906;28;20048;-49
2021/06/08 12:29:52;;;;;;;14.23;11.40;;;24.60;62.20;;;;;;5031679;28;20104;-49
2021/06/08 12:32:18;;;;;;;10.90;9.68;;;24.50;62.20;;;;;;5023158;28;20022;-51
2021/06/08 12:34:48;;;;;;;14.93;10.98;;;24.60;62.20;;;;;;5011108;28;20129;-47
2021/06/08 12:37:25;;;;;;;11.90;10.18;;;24.60;62.10;;;;;;5011258;28;20061;-49
2021/06/08 12:39:55;;;;;;;11.75;10.48;;;24.60;62.10;;;;;;5012752;28;20026;-48
2021/06/08 12:42:22;;;;;;;12.43;10.93;;;24.50;62.80;;;;;;5015297;28;20069;-49
2021/06/08 12:44:50;;;;;;;12.18;10.07;;;24.50;62.20;;;;;;5015471;28;20034;-51
2021/06/08 12:47:18;;;;;;;11.93;10.63;;;24.60;62.10;;;;;;5019724;28;20116;-50
2021/06/08 12:49:44;;;;;;;11.98;10.45;;;24.60;62.10;;;;;;5035307;28;20048;-52
2021/06/08 12:52:18;;;;;;;11.63;10.43;;;24.50;62.00;;;;;;5034529;28;20395;-49
2021/06/08 12:54:47;;;;;;;10.77;9.70;;;24.50;62.20;;;;;;5030174;28;20075;-48
2021/06/08 12:57:23;;;;;;;11.55;10.05;;;24.50;62.10;;;;;;5034552;28;20037;-46